Relevés horaires Interlaken (Suisse)


Relevés horaires à Interlaken - Vendredi 13 Juill. 2018
Heure UTC1 Température [°C] Vent [km/h] Hum. [%] Pres.4 [hPa] Visi. [Km] Nébu. [octa] Préc.5 [mm] Cond.
2m. Res. Ros. Dir.2 Vit. Moy. Raf.3
23:00 16.5 16.5 14.2 SSO 3.7 -- -- 86 1019.5 -- -- -- --
22:00 17.0 17.0 14.8 S 1.9 -- -- 87 1019.4 -- -- -- --
21:00 18.0 18.0 15.5 S 3.7 -- 22.2 85 1019.4(1.6/3h) -- -- -- --
20:00 19.0 19.0 16.2 SO 5.6 -- -- 84 1018.7 -- -- -- --
19:00 19.5 19.5 16.5 S 5.6 -- -- 83 1017.6 -- -- -- --
18:00 21.0 21.0 15.5 SSO 11.1 -- 33.3 71 1016.9(0.3/3h) -- -- 0.6/12h
--
17:00 25.5 25.5 12.2 ONO 7.4 -- -- 44 1015.3 -- -- -- --
16:00 27.0 27.0 11.4 O 13.0 -- -- 38 1015.1 -- -- -- --
15:00 26.8 26.8 11.5 O 14.8 -- 33.3 39 1015.2(-0.6/3h) -- -- -- --
14:00 26.9 26.9 11.3 O 16.7 -- -- 38 1015.5 -- -- -- --
13:00 26.6 26.6 10.9 O 18.5 -- -- 37 1015.7 -- -- -- --
12:00 26.1 26.1 10.6 O 18.5 -- 31.5 38 1016(-0.7/3h) -- -- 0/6h
--
11:00 24.7 24.7 11.2 ONO 16.7 -- -- 43 1016.8 -- -- -- --
10:00 22.7 22.7 11.0 NNO 7.4 -- -- 48 1017.6 -- -- -- --
09:00 21.7 21.7 11.9 ONO 7.4 -- 16.7 54 1017.8(-0.3/3h) -- -- -- --
08:00 19.8 19.8 11.8 ENE 3.7 -- -- 60 1018.5 -- -- -- --
07:00 18.1 18.1 12.4 SSE 1.9 -- -- 69 1019.1 -- -- -- --
06:00 16.2 16.2 11.4 SO 0.0 -- 7.4 73 1019.5(0.1/3h) -- -- 0/12h
0/24h
--
05:00 14.4 14.4 10.4 SO 1.9 -- -- 77 1020 -- -- -- --
04:00 13.6 13.6 10.4 NNO 0.0 -- -- 81 1020.2 -- -- -- --
03:00 13.4 13.4 10.3 S 1.9 -- 7.4 81 1020.1(0.5/3h) -- -- -- --
02:00 13.8 13.8 10.4 S 1.9 -- -- 80 1019.7 -- -- -- --
01:00 14.8 14.8 10.6 SSO 3.7 -- -- 76 1019.4 -- -- -- --
00:00 15.3 15.3 11.0 SSE 3.7 -- 13.0 76 1019.1(0.8/3h) -- -- 0/6h
--

1 Coordinated Universal Time. Actuellement il est 08:00 locale et 07:00 UTC.

2 Le vent souffle depuis la direction indiquée vers la direction oposée.

3 Les rafales max. sont disponible 40 min après l'heure du relevé.

4 Pour les stations d'altitude (plus de 600m) le géopotentiel du niveau le plus proche de la pression obligatoire est indiqué.

5 Les stations disposant d'un diffuseur peuvent indiquer "trace". Cela signifie que des précipitations ont touchés le sol mais que la quantité est inférieure à 0.1 mm.

Récapitulatif de la journée
Température [°C] Vent [km/h] Ensoleillement4 [h] Precipitations totale5 [mm] Pression [Hpa]
Min1 Max.2 Moy.3 Max. Min Max.
13.1 27.1 0 33.3 11 h 18 min 0.6 1015.1 1020.2

1 Température minimale relevée entre 18:00 UTC la veille et 18:00 UTC le jour donné.

2 Température maximale relevée entre 06:00 UTC le jour donné et 06:00 UTC le lendemain.

3 Vent moyen de la journée basé sur les relevés horaires.

4 Ensoleillement en heures relevé entre 06:00 UTC la veille et 06:00 UTC le jour donné.

5 Précipitations totales tombées entre 06:00 UTC la jour donné et 06:00 UTC le lendemain.

Graphiques horaires